Flight Track Log - Related Links

Times and Time Zones

All times are in EDT time to prevent confusion due to time zone crossing. See the SWA1046 flight status page for this flight to view local times or setup timezone preferences in your user account.

Time Position Orientation Groundspeed Altitude Reporting Facility
EDT Latitude Longitude Course Direction KTS MPH feet Rate Location/Type
Wed 07:52:09 AM 42.7297 -73.8081 251° West 154 177 1,200  Level Boston Center
Wed 07:53:51 AM 42.7122 -73.8756 251° West 215 247 4,800 2,370 Climbing Boston Center
Wed 07:54:51 AM 42.7258 -73.9606 282° West 227 261 7,600 2,900 Climbing Boston Center
Wed 07:55:51 AM 42.6997 -74.0333 244° Southwest 219 252 10,600 2,650 Climbing Boston Center
Wed 07:56:51 AM 42.6186 -74.0172 172° South 180 207 12,900 2,850 Climbing Boston Center
Wed 07:57:51 AM 42.5150 -73.9892 169° South 277 319 16,300 2,900 Climbing Boston Center
Wed 07:58:51 AM 42.4256 -73.9703 171° South 351 404 18,700 2,800 Climbing Boston Center
Wed 07:59:51 AM 42.3050 -73.9503 173° South 381 438 21,900 3,000 Climbing Boston Center
Wed 08:00:51 AM 42.1967 -73.9308 172° South 394 453 24,700 2,550 Climbing Boston Center
Wed 08:01:51 AM 42.0867 -73.9089 172° South 399 459 27,000 2,050 Climbing Boston Center
Wed 08:02:51 AM 41.9703 -73.8867 172° South 412 474 28,800 1,750 Climbing Boston Center
Wed 08:03:51 AM 41.8536 -73.8644 172° South 424 488 30,500 2,143 Climbing Boston Center
Wed 08:06:07 AM 41.5950 -73.8197 173° South 429 494 35,800 2,388 Climbing New York Center
Wed 08:07:07 AM 41.4889 -73.8175 179° South 395 455 38,300 1,322 Climbing New York Center
Wed 08:08:05 AM 41.3933 -73.8103 177° South 384 442 38,400 353 Climbing New York Center
Wed 08:09:06 AM 41.2831 -73.8056 178° South 384 442 39,000 500 Climbing New York Center
Wed 08:10:05 AM 41.1667 -73.8692 202° Southwest 399 459 39,400 400 Climbing New York Center
Wed 08:11:06 AM 41.0733 -73.9364 209° Southwest 424 488 39,800 295 Climbing New York Center
Wed 08:12:07 AM 40.9544 -74.0158 207° Southwest 439 505 40,000 99 Climbing New York Center
Wed 08:13:07 AM 40.8442 -74.0903 207° Southwest 439 505 40,000  Level New York Center
Wed 08:14:06 AM 40.7381 -74.1589 206° Southwest 444 511 40,000  Level New York Center
Wed 08:15:07 AM 40.6317 -74.2303 207° Southwest 438 504 40,000  Level New York Center
Wed 08:16:07 AM 40.5278 -74.2986 207° Southwest 438 504 40,000  Level New York Center
Wed 08:18:07 AM 40.3225 -74.4406 208° Southwest 420 483 40,000  Level Washington Center
Wed 08:19:04 AM 40.2189 -74.5075 206° Southwest 420 483 40,000  Level Washington Center
Wed 08:20:05 AM 40.1156 -74.5769 207° Southwest 420 483 40,000  Level Washington Center
Wed 08:21:05 AM 40.0119 -74.6461 207° Southwest 420 483 40,000  Level Washington Center
Wed 08:22:07 AM 39.9083 -74.7125 206° Southwest 420 483 40,000  Level Washington Center
Wed 08:23:04 AM 39.8044 -74.7839 208° Southwest 425 489 40,000  Level Washington Center
Wed 08:24:07 AM 39.7008 -74.8525 207° Southwest 425 489 40,000  Level Washington Center
Wed 08:25:05 AM 39.6033 -74.9156 206° Southwest 425 489 40,000  Level Washington Center
Wed 08:26:05 AM 39.5014 -74.9811 206° Southwest 425 489 40,000  Level Washington Center
Wed 08:27:04 AM 39.3997 -75.0464 206° Southwest 425 489 40,000  Level Washington Center
Wed 08:28:05 AM 39.2978 -75.1142 207° Southwest 419 482 40,000  Level Washington Center
Wed 08:29:06 AM 39.1897 -75.1606 198° South 414 476 40,000  Level Washington Center
Wed 08:30:07 AM 39.0814 -75.2039 197° South 414 476 40,000  Level Washington Center
Wed 08:31:07 AM 38.9692 -75.2500 198° South 414 476 40,000  Level Washington Center
Wed 08:32:05 AM 38.8586 -75.3011 200° South 420 483 40,000  Level Washington Center
Wed 08:33:05 AM 38.7461 -75.3467 198° South 425 489 40,000  Level Washington Center
Wed 08:34:06 AM 38.6339 -75.3950 199° South 425 489 40,000  Level Washington Center
Wed 08:35:07 AM 38.5211 -75.4406 198° South 425 489 40,000  Level Washington Center
Wed 08:36:07 AM 38.4067 -75.4858 197° South 430 495 40,000  Level Washington Center
Wed 08:37:04 AM 38.2919 -75.5361 199° South 430 495 40,000  Level Washington Center
Wed 08:38:05 AM 38.1836 -75.6075 207° Southwest 430 495 40,000  Level Washington Center
Wed 08:39:06 AM 38.0772 -75.6736 206° Southwest 435 501 40,000  Level Washington Center
Wed 08:40:07 AM 37.9625 -75.7525 208° Southwest 435 501 40,000  Level Washington Center
Wed 08:41:08 AM 37.8558 -75.8153 205° Southwest 427 491 40,000  Level Washington Center
Wed 08:42:07 AM 37.7517 -75.8808 206° Southwest 421 484 40,000  Level Washington Center
Wed 08:43:05 AM 37.6450 -75.9486 207° Southwest 421 484 40,000  Level Washington Center
Wed 08:44:06 AM 37.5406 -76.0108 205° Southwest 426 490 40,000  Level Washington Center
Wed 08:45:06 AM 37.4339 -76.0756 206° Southwest 426 490 40,000  Level Washington Center
Wed 08:46:07 AM 37.3314 -76.1378 206° Southwest 426 490 40,000  Level Washington Center
Wed 08:47:05 AM 37.2331 -76.1917 204° Southwest 426 490 40,000  Level Washington Center
Wed 08:48:06 AM 37.1286 -76.2561 206° Southwest 426 490 40,000  Level Washington Center
Wed 08:49:07 AM 37.0217 -76.3203 206° Southwest 426 490 40,000  Level Washington Center
Wed 08:50:05 AM 36.9169 -76.3817 205° Southwest 426 490 40,000  Level Washington Center
Wed 08:51:06 AM 36.8042 -76.4325 200° South 426 490 40,000  Level Washington Center
Wed 08:52:06 AM 36.6825 -76.4881 200° South 426 490 40,000  Level Washington Center
Wed 08:53:07 AM 36.5697 -76.5333 198° South 431 496 40,000  Level Washington Center
Wed 08:54:07 AM 36.4567 -76.5836 200° South 431 496 40,000  Level Washington Center
Wed 08:55:05 AM 36.3456 -76.6311 199° South 431 496 40,000  Level Washington Center
Wed 08:56:05 AM 36.2408 -76.6736 198° South 431 496 40,000  Level Washington Center
Wed 08:57:06 AM 36.1300 -76.7208 199° South 431 496 40,000  Level Washington Center
Wed 08:58:07 AM 36.0189 -76.7681 199° South 426 490 40,000  Level Washington Center
Wed 08:59:05 AM 35.9078 -76.8178 200° South 426 490 40,000  Level Washington Center
Wed 09:00:06 AM 35.7989 -76.8622 198° South 426 490 40,000  Level Washington Center
Wed 09:01:07 AM 35.6897 -76.9039 197° South 426 490 40,000  Level Washington Center
Wed 09:02:04 AM 35.5850 -76.9533 201° Southwest 420 483 40,000  Level Washington Center
Wed 09:03:05 AM 35.4758 -76.9975 198° South 420 483 40,000  Level Washington Center
Wed 09:04:06 AM 35.3647 -77.0464 200° South 420 483 40,000  Level Washington Center
Wed 09:05:07 AM 35.2558 -77.0903 198° South 420 483 40,000  Level Washington Center
Wed 09:06:05 AM 35.1467 -77.1364 199° South 420 483 40,000  Level Washington Center
Wed 09:07:06 AM 35.0333 -77.1825 198° South 420 483 40,000  Level Washington Center
Wed 09:08:07 AM 34.9242 -77.2286 199° South 420 483 40,000  Level Washington Center
Wed 09:09:08 AM 34.8150 -77.2769 200° South 425 489 40,000  Level Washington Center
Wed 09:10:05 AM 34.7081 -77.3203 198° South 425 489 40,000  Level Washington Center
Wed 09:11:06 AM 34.5989 -77.3658 199° South 425 489 40,000  Level Washington Center
Wed 09:12:07 AM 34.4919 -77.4114 199° South 420 483 40,000  Level Washington Center
Wed 09:13:05 AM 34.3806 -77.4542 198° South 420 483 40,000  Level Washington Center
Wed 09:14:07 AM 34.2714 -77.4994 199° South 420 483 40,000  Level Washington Center
Wed 09:15:38 AM 34.0892 -77.5694 198° South 410 472 40,000  Level Jacksonville Center
Wed 09:16:38 AM 33.9783 -77.6136 198° South 410 472 40,000  Level Jacksonville Center
Wed 09:17:38 AM 33.8694 -77.6553 198° South 416 479 40,000  Level Jacksonville Center
Wed 09:18:39 AM 33.7592 -77.7069 201° Southwest 416 479 40,000  Level Jacksonville Center
Wed 09:19:38 AM 33.6481 -77.7458 196° South 416 479 40,000  Level Jacksonville Center
Wed 09:20:38 AM 33.5369 -77.7897 198° South 421 484 40,000  Level Jacksonville Center
Wed 09:21:38 AM 33.4283 -77.8356 199° South 421 484 40,000  Level Jacksonville Center
Wed 09:22:38 AM 33.3172 -77.8769 197° South 421 484 40,000  Level Jacksonville Center
Wed 09:23:38 AM 33.2042 -77.9203 198° South 421 484 40,000  Level Jacksonville Center
Wed 09:24:38 AM 33.0956 -77.9661 199° South 421 484 40,000  Level Jacksonville Center
Wed 09:25:38 AM 32.9844 -78.0094 198° South 421 484 40,000  Level Jacksonville Center
Wed 09:26:38 AM 32.8775 -78.0472 197° South 421 484 40,000  Level Jacksonville Center
Wed 09:27:38 AM 32.7811 -78.0919 201° Southwest 421 484 40,000  Level Jacksonville Center
Wed 09:28:38 AM 32.6719 -78.1325 197° South 421 484 40,000  Level Jacksonville Center
Wed 09:29:38 AM 32.5628 -78.1750 198° South 421 484 40,000  Level Jacksonville Center
Wed 09:30:38 AM 32.4539 -78.2175 198° South 421 484 40,000  Level Jacksonville Center
Wed 09:31:38 AM 32.3447 -78.2600 198° South 421 484 40,000  Level Jacksonville Center
Wed 09:32:38 AM 32.2378 -78.3047 199° South 416 479 40,000  Level Jacksonville Center
Wed 09:33:38 AM 32.1331 -78.3469 199° South 416 479 40,000  Level Jacksonville Center
Wed 09:34:38 AM 32.0258 -78.3889 198° South 416 479 40,000  Level Jacksonville Center
Wed 09:35:38 AM 31.9189 -78.4308 198° South 410 472 40,000  Level Jacksonville Center
Wed 09:36:38 AM 31.8139 -78.4725 199° South 410 472 40,000  Level Jacksonville Center
Wed 09:37:38 AM 31.7089 -78.5117 198° South 405 466 40,000  Level Jacksonville Center
Wed 09:38:38 AM 31.6036 -78.5508 198° South 400 460 40,000  Level Jacksonville Center
Wed 09:39:38 AM 31.4986 -78.5900 198° South 400 460 40,000  Level Jacksonville Center
Wed 09:40:38 AM 31.3894 -78.6314 198° South 400 460 40,000  Level Jacksonville Center
Wed 09:41:38 AM 31.2864 -78.6725 199° South 405 466 40,000  Level Jacksonville Center
Wed 09:42:38 AM 31.1811 -78.7136 198° South 405 466 40,000  Level Jacksonville Center
Wed 09:43:38 AM 31.0722 -78.7622 201° Southwest 405 466 40,000  Level Jacksonville Center
Wed 09:44:38 AM 30.9547 -78.8086 199° South 405 466 40,000  Level Jacksonville Center
Wed 09:45:38 AM 30.8456 -78.8544 200° South 416 479 40,000  Level Jacksonville Center
Wed 09:46:38 AM 30.7403 -78.8975 199° South 406 467 40,000  Level Jacksonville Center
Wed 09:47:38 AM 30.6375 -78.9428 201° Southwest 410 472 40,000  Level Jacksonville Center
Wed 09:48:34 AM 30.5503 -78.9747 198° South 405 466 40,000  Level Miami Center
Wed 09:49:34 AM 30.4475 -79.0183 200° South 399 459 40,000  Level Miami Center
Wed 09:50:34 AM 30.3425 -79.0619 200° South 405 466 40,000  Level Miami Center
Wed 09:51:34 AM 30.2356 -79.1053 199° South 405 466 40,000  Level Miami Center
Wed 09:52:34 AM 30.1369 -79.1464 200° South 405 466 40,000 -300 Level Miami Center
Wed 09:53:34 AM 30.0278 -79.1894 199° South 410 472 39,400 -1,100 Descending Miami Center
Wed 09:54:34 AM 29.9289 -79.2425 205° Southwest 399 459 37,800 -1,700 Descending Miami Center
Wed 09:55:34 AM 29.8219 -79.2831 198° South 399 459 36,000 -1,850 Descending Miami Center
Wed 09:56:34 AM 29.7169 -79.3261 200° South 399 459 34,100 -1,450 Descending Miami Center
Wed 09:57:34 AM 29.6014 -79.3689 198° South 412 474 33,100 -950 Descending Miami Center
Wed 09:58:34 AM 29.4983 -79.4167 202° Southwest 412 474 32,200 -950 Descending Miami Center
Wed 09:59:34 AM 29.3850 -79.4592 198° South 417 480 31,200 -950 Descending Miami Center
Wed 10:00:34 AM 29.2736 -79.5089 201° Southwest 426 490 30,300 -600 Descending Miami Center
Wed 10:01:34 AM 29.1581 -79.5464 196° South 438 504 30,000 -150 Descending Miami Center
Wed 10:02:34 AM 29.0753 -79.6253 220° Southwest 404 465 30,000 -850 Level Miami Center
Wed 10:03:34 AM 29.0436 -79.7431 253° West 373 429 28,300 -1,950 Descending Miami Center
Wed 10:04:34 AM 29.0103 -79.8489 250° West 368 423 26,100 -2,150 Descending Miami Center
Wed 10:05:34 AM 28.9789 -79.9525 251° West 362 417 24,000 -2,100 Descending Miami Center
Wed 10:06:34 AM 28.9453 -80.0558 250° West 357 411 21,900 -2,100 Descending Miami Center
Wed 10:07:34 AM 28.9158 -80.1569 252° West 345 397 19,800 -2,000 Descending Miami Center
Wed 10:08:34 AM 28.8844 -80.2581 250° West 335 386 17,900 -1,912 Descending Miami Center
Wed 10:10:36 AM 28.8167 -80.4833 251° West 313 360 14,000 -1,238 Descending Orlando TRACON
Wed 10:11:43 AM 28.8000 -80.5833 259° West 312 359 14,000 -425 Level Orlando TRACON
Wed 10:12:43 AM 28.7833 -80.6833 259° West 309 356 13,100 -1,100 Descending Orlando TRACON
Wed 10:13:43 AM 28.8000 -80.7667 283° West 288 331 11,800 -1,316 Descending Orlando TRACON
Wed 10:14:37 AM 28.8000 -80.8500 270° West 287 330 10,600 -1,250 Descending Orlando TRACON
Wed 10:15:43 AM 28.8000 -80.9500 270° West 280 322 9,300 -1,238 Descending Orlando TRACON
Wed 10:16:43 AM 28.8000 -81.0333 270° West 259 298 8,000 -1,289 Descending Orlando TRACON
Wed 10:17:44 AM 28.7667 -81.1000 240° Southwest 247 284 6,700 -1,091 Descending Orlando TRACON
Wed 10:18:44 AM 28.7500 -81.1833 257° West 230 265 5,800 -1,250 Descending Orlando TRACON
Wed 10:19:44 AM 28.7000 -81.2167 210° Southwest 239 275 4,200 -1,350 Descending Orlando TRACON
Wed 10:20:44 AM 28.6500 -81.2500 210° Southwest 235 270 3,100 -595 Descending Orlando TRACON
Wed 10:21:45 AM 28.5833 -81.2833 204° Southwest 191 220 3,000 -496 Descending Orlando TRACON
Wed 10:22:45 AM 28.5333 -81.2833 180° South 177 204 2,100 -842 Descending Orlando TRACON
Wed 10:23:39 AM 28.5000 -81.3000 204° Southwest 144 166 1,400 -730 Descending Orlando TRACON
Wed 10:24:40 AM 28.4667 -81.3000 180° South 135 155 700 -689 Descending Orlando TRACON

Login

Don't have an account? Register now (free) for customized features, flight alerts, and more!